Time;durP1;ratioP1;P1;durP2;ratioP2;P2;SDS_P1;SDS_P2;PMS_P1;PMS_P2;Temp;Humidity;BMP_temperature;BMP_pressure;BME280_temperature;BME280_humidity;BME280_pressure;Samples;Min_cycle;Max_cycle;Signal;HPM_P1;HPM_P2
2020/12/20 00:00:17;;;;;;;33.53;19.65;;;;;;;0.18;88.92;97619.41;1734338;81;21314;-82
2020/12/20 00:02:52;;;;;;;20.55;12.10;;;;;;;0.11;88.98;97619.02;1734615;83;21131;-82
2020/12/20 00:05:21;;;;;;;28.77;14.40;;;;;;;0.07;89.08;97612.58;1734236;83;21292;-82
2020/12/20 00:07:50;;;;;;;32.30;19.17;;;;;;;0.00;89.19;97611.23;1734342;82;21186;-82
2020/12/20 00:10:19;;;;;;;24.12;13.45;;;;;;;-0.01;89.74;97610.89;1734334;81;21285;-82
2020/12/20 00:12:47;;;;;;;26.85;11.93;;;;;;;0.03;89.78;97613.95;1734309;83;21115;-82
2020/12/20 00:15:16;;;;;;;23.65;13.43;;;;;;;0.06;90.00;97616.17;1734401;83;21268;-82
2020/12/20 00:17:50;;;;;;;34.27;17.98;;;;;;;0.04;89.97;97620.28;1734292;82;21138;-82
2020/12/20 00:20:19;;;;;;;28.47;16.37;;;;;;;0.04;89.97;97620.28;1734243;81;21543;-82
2020/12/20 00:22:47;;;;;;;33.65;18.23;;;;;;;0.01;89.79;97621.16;1734604;83;21145;-83
2020/12/20 00:25:16;;;;;;;30.15;18.12;;;;;;;-0.03;89.82;97614.98;1734224;83;21296;-83
2020/12/20 00:27:44;;;;;;;27.05;15.43;;;;;;;-0.03;89.86;97621.50;1734515;82;21280;-82
2020/12/20 00:30:11;;;;;;;24.45;13.78;;;;;;;-0.04;89.88;97619.08;1734311;81;21516;-82
2020/12/20 00:32:38;;;;;;;36.50;19.15;;;;;;;-0.09;90.12;97594.89;1734221;83;21154;-83
2020/12/20 00:35:07;;;;;;;26.97;15.30;;;;;;;-0.03;90.14;97612.38;1734213;83;21135;-83
2020/12/20 00:37:34;;;;;;;33.15;18.98;;;;;;;-0.06;90.02;97614.06;1734327;82;21150;-82
2020/12/20 00:40:04;;;;;;;31.73;18.12;;;;;;;-0.07;90.01;97615.05;1734217;81;21143;-82
2020/12/20 00:42:31;;;;;;;28.77;15.17;;;;;;;-0.07;90.09;97614.25;1734695;82;21284;-82
2020/12/20 00:44:58;;;;;;;29.92;16.80;;;;;;;-0.07;90.17;97611.64;1734231;83;21285;-83
2020/12/20 00:47:26;;;;;;;30.35;18.67;;;;;;;-0.07;90.11;97609.84;1734509;82;21594;-83
2020/12/20 00:49:53;;;;;;;28.32;16.95;;;;;;;-0.07;89.92;97612.95;1734350;81;21649;-82
2020/12/20 00:52:20;;;;;;;25.75;13.85;;;;;;;-0.11;90.03;97616.92;1734202;82;21514;-83
2020/12/20 00:54:47;;;;;;;26.33;15.40;;;;;;;-0.13;90.04;97611.91;1734236;83;21149;-82
2020/12/20 00:57:14;;;;;;;21.62;11.93;;;;;;;-0.18;90.08;97614.23;1731721;82;21308;-83
2020/12/20 00:59:40;;;;;;;20.30;12.40;;;;;;;-0.25;90.13;97598.24;1728949;82;21498;-82
2020/12/20 01:02:08;;;;;;;25.85;12.93;;;;;;;-0.25;90.13;97598.24;1728793;83;21152;-82
2020/12/20 01:04:36;;;;;;;23.95;13.13;;;;;;;-0.25;90.43;97603.45;1728868;83;21126;-83
2020/12/20 01:07:03;;;;;;;24.57;14.47;;;;;;;-0.27;90.45;97604.95;1728867;83;21146;-82
2020/12/20 01:09:30;;;;;;;26.90;15.88;;;;;;;-0.29;90.57;97604.30;1728792;82;21134;-82
2020/12/20 01:12:00;;;;;;;24.60;13.90;;;;;;;-0.39;90.70;97583.77;1728740;83;21115;-83
2020/12/20 01:14:27;;;;;;;19.60;9.40;;;;;;;-0.31;90.71;97591.95;1729102;83;21138;-82
2020/12/20 01:16:54;;;;;;;28.83;15.20;;;;;;;-0.32;90.95;97596.36;1728947;83;21134;-83
2020/12/20 01:19:21;;;;;;;31.70;16.17;;;;;;;-0.36;90.97;97578.69;1728815;83;21158;-82
2020/12/20 01:21:48;;;;;;;24.67;13.18;;;;;;;-0.25;91.05;97593.03;1728737;82;21162;-82
2020/12/20 01:24:15;;;;;;;29.77;15.28;;;;;;;-0.31;91.00;97577.63;1728756;83;21202;-82
2020/12/20 01:26:42;;;;;;;28.52;17.90;;;;;;;-0.28;90.89;97579.05;1728778;83;21126;-83
2020/12/20 01:29:10;;;;;;;17.07;10.40;;;;;;;-0.35;90.95;97568.58;1728830;83;21562;-82
2020/12/20 01:31:37;;;;;;;24.20;14.20;;;;;;;-0.21;91.31;97587.25;1728742;82;21139;-82
2020/12/20 01:34:04;;;;;;;25.10;15.28;;;;;;;-0.21;91.31;97587.25;1728781;83;21530;-82
2020/12/20 01:36:32;;;;;;;20.72;9.70;;;;;;;-0.22;91.24;97580.43;1728839;83;21510;-82
2020/12/20 01:38:59;;;;;;;27.73;16.55;;;;;;;-0.20;91.43;97569.81;1728795;83;21306;-83
2020/12/20 01:41:26;;;;;;;29.07;14.33;;;;;;;-0.18;91.24;97592.58;1728683;82;21173;-83
2020/12/20 01:43:55;;;;;;;21.23;12.13;;;;;;;-0.18;91.34;97589.48;1728759;83;21154;-83
2020/12/20 01:46:23;;;;;;;26.85;14.33;;;;;;;-0.18;91.26;97582.97;1728826;83;21146;-82
2020/12/20 01:48:52;;;;;;;17.70;10.65;;;;;;;-0.21;91.15;97572.11;1728786;83;21147;-82
2020/12/20 01:51:20;;;;;;;25.92;14.47;;;;;;;-0.23;91.16;97568.89;1728937;82;21167;-83
2020/12/20 01:53:47;;;;;;;27.13;14.60;;;;;;;-0.26;91.05;97575.78;1728763;83;21127;-82
2020/12/20 01:56:15;;;;;;;19.15;9.98;;;;;;;-0.27;91.14;97569.77;1728954;83;21134;-83
2020/12/20 01:58:46;;;;;;;23.85;15.48;;;;;;;-0.27;91.32;97568.47;1728764;83;21178;-82
2020/12/20 02:01:13;;;;;;;27.65;15.38;;;;;;;-0.23;91.14;97583.23;1728899;82;21142;-82
2020/12/20 02:03:42;;;;;;;20.52;12.30;;;;;;;-0.25;91.07;97581.30;1728881;83;21134;-82
2020/12/20 02:06:14;;;;;;;24.05;15.00;;;;;;;-0.25;91.18;97580.00;1728939;83;21155;-82
2020/12/20 02:08:42;;;;;;;19.73;9.95;;;;;;;-0.27;91.13;97571.07;1728870;83;21494;-83
2020/12/20 02:11:13;;;;;;;21.95;11.03;;;;;;;-0.25;91.40;97567.78;1728701;82;21669;-82
2020/12/20 02:13:48;;;;;;;17.20;9.35;;;;;;;-0.26;91.63;97564.06;1728693;83;21146;-82
2020/12/20 02:16:19;;;;;;;26.12;14.23;;;;;;;-0.24;91.75;97569.89;1728355;83;21689;-82
2020/12/20 02:18:46;;;;;;;23.65;13.28;;;;;;;-0.24;91.66;97579.81;1728900;83;21118;-82
2020/12/20 02:21:17;;;;;;;23.75;14.10;;;;;;;-0.40;91.46;97561.82;1728846;82;21161;-83
2020/12/20 02:23:47;;;;;;;23.57;12.03;;;;;;;-0.34;91.37;97575.39;1728810;83;21257;-83
2020/12/20 02:26:23;;;;;;;14.60;8.18;;;;;;;-0.39;91.43;97571.25;1728821;83;21138;-83
2020/12/20 02:28:56;;;;;;;12.95;7.42;;;;;;;-0.42;91.62;97564.61;1729067;83;21124;-82
2020/12/20 02:31:28;;;;;;;14.68;7.87;;;;;;;-0.41;91.86;97565.42;1728209;82;21153;-82
2020/12/20 02:33:57;;;;;;;17.48;9.43;;;;;;;-0.43;91.82;97559.56;1728827;83;21519;-82
2020/12/20 02:36:24;;;;;;;19.65;11.63;;;;;;;-0.44;91.91;97563.97;1728653;83;21629;-82
2020/12/20 02:38:51;;;;;;;22.45;13.70;;;;;;;-0.46;91.88;97563.34;1728937;83;21269;-82
2020/12/20 02:41:19;;;;;;;19.42;11.38;;;;;;;-0.49;91.74;97561.13;1728712;82;21515;-82
2020/12/20 02:43:48;;;;;;;19.80;11.60;;;;;;;-0.50;91.73;97562.61;1728422;83;21107;-83
2020/12/20 02:46:17;;;;;;;21.45;10.53;;;;;;;-0.51;91.72;97566.20;1728818;83;21146;-82
2020/12/20 02:48:45;;;;;;;20.88;12.45;;;;;;;-0.54;91.75;97562.17;1728822;83;21135;-82
2020/12/20 02:51:13;;;;;;;22.35;10.88;;;;;;;-0.55;91.66;97564.47;1728821;82;21116;-82
2020/12/20 02:53:40;;;;;;;19.90;12.82;;;;;;;-0.56;91.68;97563.33;1728744;83;21159;-83
2020/12/20 02:56:07;;;;;;;23.57;12.63;;;;;;;-0.58;91.59;97558.80;1728687;83;21265;-82
2020/12/20 02:58:34;;;;;;;18.17;10.45;;;;;;;-0.58;91.55;97569.22;1732665;83;21170;-82
2020/12/20 03:01:01;;;;;;;22.50;13.08;;;;;;;-0.70;91.54;97559.30;1762886;81;21289;-82
2020/12/20 03:03:28;;;;;;;18.77;11.93;;;;;;;-0.70;91.54;97559.30;1764457;81;21142;-83
2020/12/20 03:05:56;;;;;;;22.65;11.12;;;;;;;-0.64;91.60;97570.28;1764389;81;21131;-82
2020/12/20 03:08:23;;;;;;;18.82;11.20;;;;;;;-0.63;91.55;97575.80;1764452;81;21499;-82
2020/12/20 03:10:50;;;;;;;24.18;13.05;;;;;;;-0.65;91.51;97575.17;1764627;81;21269;-82
2020/12/20 03:13:17;;;;;;;18.48;10.53;;;;;;;-0.66;91.50;97563.64;1740175;81;21637;-82
2020/12/20 03:15:44;;;;;;;17.35;11.15;;;;;;;-0.67;91.48;97571.95;1734327;83;21281;-82
2020/12/20 03:18:11;;;;;;;16.35;8.98;;;;;;;-0.68;91.41;97569.04;1734317;83;21280;-83
2020/12/20 03:20:38;;;;;;;18.70;10.10;;;;;;;-0.70;91.41;97571.02;1734327;81;21163;-82
2020/12/20 03:23:06;;;;;;;16.90;10.08;;;;;;;-0.73;91.43;97571.36;1734387;83;21143;-82
2020/12/20 03:25:34;;;;;;;19.60;10.70;;;;;;;-0.74;91.55;97571.55;1734283;83;21292;-82
2020/12/20 03:28:03;;;;;;;17.70;10.30;;;;;;;-0.74;91.64;97572.85;1734528;82;21277;-82
2020/12/20 03:30:31;;;;;;;19.57;10.90;;;;;;;-0.76;91.51;97584.75;1734332;81;21119;-83
2020/12/20 03:32:58;;;;;;;21.12;11.50;;;;;;;-0.76;91.54;97584.75;1734373;83;21531;-82
2020/12/20 03:35:25;;;;;;;17.77;10.53;;;;;;;-0.74;91.45;97583.27;1734303;83;21285;-82
2020/12/20 03:37:55;;;;;;;21.55;13.50;;;;;;;-0.76;91.44;97586.05;1734315;82;21302;-82
2020/12/20 03:40:24;;;;;;;20.10;12.75;;;;;;;-0.75;91.42;97582.95;1734290;81;21135;-82
2020/12/20 03:42:52;;;;;;;20.23;11.48;;;;;;;-0.76;91.40;97578.73;1734233;83;21103;-83
2020/12/20 03:45:20;;;;;;;23.02;13.75;;;;;;;-0.77;91.51;97579.23;1734296;83;21134;-83
2020/12/20 03:47:48;;;;;;;20.97;12.20;;;;;;;-0.76;91.51;97587.36;1734307;82;21150;-82
2020/12/20 03:50:16;;;;;;;19.85;12.53;;;;;;;-0.75;91.52;97573.84;1734488;81;21310;-82
2020/12/20 03:52:43;;;;;;;18.55;11.78;;;;;;;-0.75;91.65;97574.65;1734332;83;21618;-82
2020/12/20 03:55:10;;;;;;;19.75;11.22;;;;;;;-0.84;91.51;97559.34;1734542;83;21269;-82
2020/12/20 03:57:37;;;;;;;17.20;10.40;;;;;;;-0.74;91.58;97581.97;1733029;82;21131;-82
2020/12/20 04:00:05;;;;;;;24.20;13.25;;;;;;;-0.73;91.60;97588.28;1728861;82;21150;-82
2020/12/20 04:02:32;;;;;;;20.68;12.45;;;;;;;-0.74;91.54;97580.16;1728903;83;21628;-82
2020/12/20 04:04:59;;;;;;;19.70;12.68;;;;;;;-0.73;91.59;97570.56;1728843;83;21142;-82
2020/12/20 04:07:26;;;;;;;20.17;12.30;;;;;;;-0.73;91.49;97572.67;1728885;83;21498;-82
2020/12/20 04:09:55;;;;;;;27.32;14.00;;;;;;;-0.70;91.54;97573.62;1728891;82;21495;-82
2020/12/20 04:12:22;;;;;;;25.30;13.80;;;;;;;-0.72;91.43;97575.58;1728839;83;21155;-83
2020/12/20 04:14:49;;;;;;;21.05;12.03;;;;;;;-0.75;91.33;97569.44;1728931;83;21506;-82
2020/12/20 04:17:16;;;;;;;21.87;10.85;;;;;;;-0.76;91.43;97581.34;1728921;83;21115;-82
2020/12/20 04:19:43;;;;;;;22.22;13.38;;;;;;;-0.86;91.47;97561.29;1728871;82;21146;-83
2020/12/20 04:22:10;;;;;;;20.75;13.15;;;;;;;-0.77;91.45;97579.23;1728847;83;21158;-82
2020/12/20 04:24:36;;;;;;;17.32;10.55;;;;;;;-0.80;91.47;97587.41;1728821;83;21150;-83
2020/12/20 04:27:03;;;;;;;23.80;13.22;;;;;;;-0.83;91.83;97577.87;1728941;83;21146;-83
2020/12/20 04:29:30;;;;;;;20.77;12.53;;;;;;;-0.86;91.74;97572.51;1728857;82;21487;-82
2020/12/20 04:31:57;;;;;;;16.23;9.85;;;;;;;-0.86;91.77;97580.81;1728907;83;21146;-82
2020/12/20 04:34:24;;;;;;;20.40;12.98;;;;;;;-0.88;92.07;97578.39;1728748;83;21170;-82
2020/12/20 04:36:51;;;;;;;23.38;13.30;;;;;;;-0.92;91.95;97572.75;1728812;83;21293;-82
2020/12/20 04:39:17;;;;;;;24.57;13.93;;;;;;;-0.94;92.17;97569.53;1728974;83;21167;-82
2020/12/20 04:41:44;;;;;;;20.82;12.45;;;;;;;-0.94;92.21;97568.72;1728831;82;21204;-82
2020/12/20 04:44:12;;;;;;;22.77;12.88;;;;;;;-0.94;92.35;97570.83;1728754;83;21142;-82
2020/12/20 04:46:40;;;;;;;20.27;12.25;;;;;;;-0.95;92.27;97573.62;1729001;83;21150;-82
2020/12/20 04:49:09;;;;;;;19.62;11.05;;;;;;;-0.95;92.31;97574.42;1728794;83;21139;-82
2020/12/20 04:51:38;;;;;;;22.62;12.90;;;;;;;-0.92;92.49;97583.16;1728983;82;21516;-83
2020/12/20 04:54:07;;;;;;;22.42;13.40;;;;;;;-0.92;92.38;97580.56;1700135;83;21167;-82
2020/12/20 04:56:37;;;;;;;22.40;13.10;;;;;;;-1.03;92.41;97560.69;1728922;83;21130;-82
2020/12/20 04:59:06;;;;;;;;;;;;;;;-1.00;92.22;97566.83;1735154;83;21518;-82
2020/12/20 05:01:34;;;;;;;14.90;7.97;;;;;;;-0.94;92.37;97576.53;1734282;81;20118;-82
2020/12/20 05:04:02;;;;;;;17.27;10.23;;;;;;;-0.99;92.60;97570.55;1734236;82;21250;-82
2020/12/20 05:06:30;;;;;;;16.55;9.85;;;;;;;-0.95;92.50;97586.63;1734250;83;21139;-82
2020/12/20 05:09:05;;;;;;;22.70;13.10;;;;;;;-0.96;92.77;97584.52;1734248;82;21130;-82
2020/12/20 05:11:42;;;;;;;22.42;12.88;;;;;;;-0.95;92.77;97597.05;1734358;81;21115;-82
2020/12/20 05:14:13;;;;;;;19.17;12.35;;;;;;;-1.04;92.77;97582.50;1734283;83;21693;-82
2020/12/20 05:16:41;;;;;;;22.75;12.40;;;;;;;-0.96;92.73;97596.23;1734481;83;21277;-82
2020/12/20 05:19:15;;;;;;;19.27;11.83;;;;;;;-0.97;92.75;97593.32;1734215;83;21151;-82
2020/12/20 05:21:40;;;;;;;21.62;12.68;;;;;;;-0.98;92.61;97593.51;1708432;83;21514;-82
2020/12/20 05:24:26;;;;;;;23.12;13.03;;;;;;;-1.00;92.66;97595.45;1734274;82;21499;-82
2020/12/20 05:26:53;;;;;;;22.73;13.55;;;;;;;-1.01;92.74;97591.23;1733977;83;21272;-82
2020/12/20 05:29:26;;;;;;;25.90;13.60;;;;;;;-1.03;92.62;97581.02;1734296;82;21529;-82
2020/12/20 05:31:50;;;;;;;22.80;12.80;;;;;;;-1.02;92.66;97585.23;1734308;81;21135;-82
2020/12/20 05:34:21;;;;;;;13.50;7.78;;;;;;;-1.03;92.97;97584.92;1734132;82;21506;-82
2020/12/20 05:36:48;;;;;;;18.15;11.25;;;;;;;-1.03;92.97;97584.92;1734332;83;21155;-82
2020/12/20 05:39:19;;;;;;;13.90;7.12;;;;;;;-1.14;93.02;97576.75;1734295;83;21293;-82
2020/12/20 05:41:48;;;;;;;15.10;7.85;;;;;;;-1.14;93.02;97576.75;1734242;81;21269;-82
2020/12/20 05:44:23;;;;;;;16.73;8.75;;;;;;;-1.03;93.56;97575.81;1734173;82;21132;-82
2020/12/20 05:46:51;;;;;;;19.00;11.90;;;;;;;-1.03;93.67;97584.92;1734462;83;21285;-82
2020/12/20 05:49:22;;;;;;;16.10;10.30;;;;;;;-1.02;93.62;97585.23;1734166;82;21126;-82
2020/12/20 05:52:09;;;;;;;15.68;6.70;;;;;;;-1.03;93.69;97593.22;1734244;81;21162;-82
2020/12/20 05:54:40;;;;;;;19.20;9.88;;;;;;;-1.02;93.99;97588.33;1734286;82;21130;-82
2020/12/20 05:57:17;;;;;;;12.88;7.47;;;;;;;-0.99;93.98;97590.56;1734366;82;21162;-82
2020/12/20 05:59:47;;;;;;;18.17;8.28;;;;;;;-1.00;94.24;97593.66;1729423;82;21142;-82
2020/12/20 06:02:16;;;;;;;15.63;9.03;;;;;;;-1.01;94.30;97592.05;1729211;83;21126;-82
2020/12/20 06:04:45;;;;;;;15.32;8.63;;;;;;;-0.99;94.46;97580.95;1728750;83;21131;-82
2020/12/20 06:07:14;;;;;;;17.75;8.78;;;;;;;-0.98;94.52;97581.80;1728792;83;21174;-82
2020/12/20 06:09:58;;;;;;;15.08;9.78;;;;;;;-0.97;94.48;97588.61;1728964;82;21135;-82
2020/12/20 06:12:29;;;;;;;17.70;9.85;;;;;;;-0.99;94.37;97588.77;1728697;83;21138;-83
2020/12/20 06:14:59;;;;;;;8.70;4.97;;;;;;;-0.98;94.40;97593.51;1728709;83;21088;-82
2020/12/20 06:17:28;;;;;;;12.40;8.78;;;;;;;-0.96;94.49;97586.31;1729157;83;21151;-83
2020/12/20 06:20:04;;;;;;;17.50;9.63;;;;;;;-0.95;94.49;97587.93;1725070;82;21147;-82
2020/12/20 06:22:36;;;;;;;19.90;11.63;;;;;;;-0.95;94.46;97580.93;1728874;83;21261;-83
2020/12/20 06:25:06;;;;;;;18.40;8.13;;;;;;;-0.94;94.42;97592.95;1728628;83;21289;-83
2020/12/20 06:27:36;;;;;;;13.95;7.58;;;;;;;-0.96;94.42;97580.62;1728741;83;21273;-83
2020/12/20 06:30:07;;;;;;;13.32;6.95;;;;;;;-0.99;94.56;97589.26;1728805;82;21491;-83
2020/12/20 06:32:54;;;;;;;14.47;8.03;;;;;;;-1.02;94.68;97592.23;1728800;83;21523;-83
2020/12/20 06:35:30;;;;;;;16.95;9.50;;;;;;;-1.05;94.71;97588.20;1728621;83;21123;-82
2020/12/20 06:37:59;;;;;;;15.05;8.98;;;;;;;-1.07;94.65;97594.58;1728985;83;21155;-82
2020/12/20 06:40:37;;;;;;;15.93;7.45;;;;;;;-1.06;94.61;97599.59;1728668;82;21491;-82
2020/12/20 06:43:04;;;;;;;18.32;10.05;;;;;;;-1.06;94.64;97596.19;1728724;83;21134;-83
2020/12/20 06:45:42;;;;;;;17.37;9.05;;;;;;;-1.04;94.55;97605.92;1728696;83;21142;-83
2020/12/20 06:48:12;;;;;;;15.05;7.83;;;;;;;-1.03;94.42;97604.92;1728687;83;21506;-83
2020/12/20 06:50:48;;;;;;;15.48;8.20;;;;;;;-1.03;94.46;97606.23;1728638;82;21330;-83
2020/12/20 06:53:18;;;;;;;13.13;6.83;;;;;;;-1.02;94.43;97611.25;1728292;83;21282;-83
2020/12/20 06:55:47;;;;;;;17.75;9.68;;;;;;;-1.08;94.65;97586.45;1728324;83;21072;-83
2020/12/20 06:58:19;;;;;;;10.08;5.17;;;;;;;-1.08;94.65;97586.45;1729249;83;21272;-83
2020/12/20 07:00:55;;;;;;;11.95;5.40;;;;;;;-0.94;94.77;97607.77;1734095;81;21142;-83
2020/12/20 07:03:31;;;;;;;14.07;9.30;;;;;;;-0.88;94.61;97621.34;1734404;82;21127;-83
2020/12/20 07:06:17;;;;;;;14.25;7.85;;;;;;;-0.88;94.61;97621.34;1734218;83;21158;-83
2020/12/20 07:08:54;;;;;;;19.07;9.73;;;;;;;-0.83;94.49;97625.53;1734417;83;21290;-83
2020/12/20 07:11:26;;;;;;;20.17;8.88;;;;;;;-0.77;94.31;97628.70;1734061;81;21146;-82
2020/12/20 07:13:57;;;;;;;19.90;8.00;;;;;;;-0.77;94.31;97628.70;1704992;84;21171;-82
2020/12/20 07:16:39;;;;;;;19.00;10.18;;;;;;;-0.64;94.17;97622.85;1704857;84;21164;-82
2020/12/20 07:19:10;;;;;;;17.62;8.90;;;;;;;-0.44;94.00;97618.67;1705189;84;21158;-82
2020/12/20 07:21:51;;;;;;;16.57;9.25;;;;;;;-0.15;93.55;97624.28;1704940;83;21181;-82
2020/12/20 07:24:32;;;;;;;18.40;10.82;;;;;;;0.10;93.11;97622.63;1704892;84;21159;-82
2020/12/20 07:27:03;;;;;;;15.28;9.43;;;;;;;0.44;93.00;97622.73;1705358;84;21142;-82
2020/12/20 07:29:36;;;;;;;16.70;9.70;;;;;;;0.97;92.71;97614.44;1704946;83;21486;-83
2020/12/20 07:32:04;;;;;;;18.52;11.45;;;;;;;1.23;91.43;97619.80;1705008;84;21135;-82
2020/12/20 07:34:33;;;;;;;19.52;10.85;;;;;;;1.44;90.58;97617.09;1704944;84;21506;-83
2020/12/20 07:37:01;;;;;;;18.20;11.08;;;;;;;1.64;89.69;97606.70;1704939;84;21155;-83
2020/12/20 07:39:28;;;;;;;17.98;10.48;;;;;;;1.72;88.64;97602.61;1705008;83;21154;-83
2020/12/20 07:42:00;;;;;;;17.67;11.05;;;;;;;1.70;87.39;97603.31;1711720;83;21141;-83
2020/12/20 07:44:27;;;;;;;12.93;7.65;;;;;;;1.79;87.53;97603.41;1734128;82;21154;-83
2020/12/20 07:46:54;;;;;;;17.52;10.78;;;;;;;1.65;85.35;97598.35;1734069;82;21111;-83
2020/12/20 07:49:21;;;;;;;20.10;12.15;;;;;;;1.66;86.13;97607.30;1734252;83;21490;-83
2020/12/20 07:51:49;;;;;;;18.17;11.65;;;;;;;1.82;86.25;97605.33;1734176;81;21162;-83
2020/12/20 07:54:16;;;;;;;16.37;9.15;;;;;;;1.89;85.32;97600.93;1734186;83;21514;-83
2020/12/20 07:56:47;;;;;;;14.93;8.10;;;;;;;1.77;84.68;97609.34;1734239;83;21124;-83
2020/12/20 07:59:19;;;;;;;12.13;7.28;;;;;;;1.53;83.89;97621.63;1734511;83;21147;-83
2020/12/20 08:01:48;;;;;;;12.58;8.23;;;;;;;1.26;84.16;97608.95;1734306;81;21289;-83
2020/12/20 08:04:22;;;;;;;13.20;7.97;;;;;;;1.14;84.68;97615.76;1734726;82;21269;-82
2020/12/20 08:06:52;;;;;;;18.05;8.28;;;;;;;1.13;85.06;97620.17;1734250;83;21143;-82
2020/12/20 08:09:22;;;;;;;22.45;12.13;;;;;;;1.14;85.19;97617.86;1734588;82;21205;-83
2020/12/20 08:11:51;;;;;;;;;;;;;;;1.14;85.35;97617.86;1736799;81;21184;-82
2020/12/20 08:14:20;;;;;;;13.62;6.50;;;;;;;1.22;85.13;97619.99;1707680;83;20341;-82
2020/12/20 08:16:50;;;;;;;13.95;7.42;;;;;;;1.23;85.11;97628.13;1707529;83;21150;-82
2020/12/20 08:19:31;;;;;;;15.63;7.87;;;;;;;1.33;85.23;97629.90;1734695;82;21593;-82
2020/12/20 08:22:14;;;;;;;15.13;8.25;;;;;;;1.42;85.13;97628.24;1734232;82;21553;-82
2020/12/20 08:24:45;;;;;;;15.50;9.60;;;;;;;1.51;84.73;97632.78;1720650;83;21203;-82
2020/12/20 08:27:20;;;;;;;15.15;10.23;;;;;;;1.59;84.75;97620.86;1734247;82;21138;-82
2020/12/20 08:29:56;;;;;;;18.05;10.43;;;;;;;1.72;85.05;97625.33;1734397;81;21344;-83
2020/12/20 08:32:28;;;;;;;12.82;8.75;;;;;;;1.76;84.63;97631.27;1734191;83;21118;-83
2020/12/20 08:35:09;;;;;;;16.70;10.20;;;;;;;1.91;84.70;97626.38;1734247;82;21158;-82
2020/12/20 08:37:36;;;;;;;17.87;11.80;;;;;;;1.98;84.62;97635.05;1733174;83;21180;-83
2020/12/20 08:40:16;;;;;;;17.50;11.20;;;;;;;2.11;84.70;97631.13;1734239;81;21123;-83
2020/12/20 08:42:46;;;;;;;17.82;11.63;;;;;;;2.24;84.67;97632.45;1734381;82;21150;-83
2020/12/20 08:45:23;;;;;;;22.55;13.35;;;;;;;2.31;83.99;97628.05;1734399;83;21154;-83
2020/12/20 08:47:51;;;;;;;19.05;10.88;;;;;;;2.28;83.67;97631.58;1734569;83;21284;-82
2020/12/20 08:50:27;;;;;;;20.30;10.75;;;;;;;2.27;83.34;97639.92;1734476;81;21280;-82
2020/12/20 08:53:08;;;;;;;17.60;10.65;;;;;;;2.32;83.30;97634.08;1734212;83;21142;-82
2020/12/20 08:55:35;;;;;;;29.25;16.90;;;;;;;2.27;83.11;97636.00;1734243;83;21143;-83
2020/12/20 08:58:06;;;;;;;18.12;11.20;;;;;;;2.28;83.10;97636.30;1734472;83;21115;-83
2020/12/20 09:00:35;;;;;;;16.73;10.58;;;;;;;2.27;83.18;97636.00;1729673;82;21135;-83
2020/12/20 09:03:06;;;;;;;20.65;12.63;;;;;;;2.35;83.03;97629.25;1728934;83;21153;-83
2020/12/20 09:05:35;;;;;;;19.27;12.03;;;;;;;2.34;83.13;97642.03;1729149;83;21126;-83
2020/12/20 09:08:05;;;;;;;19.05;11.53;;;;;;;2.46;83.43;97630.97;1728782;83;21147;-83
2020/12/20 09:10:35;;;;;;;18.82;11.55;;;;;;;2.52;83.20;97628.84;1728902;82;21139;-83
2020/12/20 09:13:09;;;;;;;20.80;12.53;;;;;;;2.61;82.89;97632.88;1728860;83;21479;-83
2020/12/20 09:15:39;;;;;;;21.30;11.18;;;;;;;2.60;82.65;97620.80;1728999;83;21118;-83
2020/12/20 09:18:25;;;;;;;17.30;10.13;;;;;;;2.64;82.44;97625.92;1729022;83;21629;-83
2020/12/20 09:20:52;;;;;;;18.07;11.50;;;;;;;2.58;82.18;97618.89;1728841;82;21130;-84
2020/12/20 09:23:24;;;;;;;19.73;11.78;;;;;;;2.63;82.28;97610.72;1729202;83;21119;-84
2020/12/20 09:26:05;;;;;;;17.57;10.28;;;;;;;2.69;82.38;97616.98;1728924;83;21143;-83
2020/12/20 09:28:34;;;;;;;19.15;10.85;;;;;;;2.77;81.89;97617.25;1729065;83;21172;-83
2020/12/20 09:31:12;;;;;;;17.85;10.25;;;;;;;2.87;82.09;97607.17;1729069;82;21115;-84
2020/12/20 09:33:41;;;;;;;17.92;10.48;;;;;;;2.97;82.02;97607.06;1728845;83;21668;-84
2020/12/20 09:36:23;;;;;;;18.42;11.20;;;;;;;3.02;81.20;97601.20;1700447;83;21539;-83
2020/12/20 09:38:53;;;;;;;12.53;7.87;;;;;;;3.03;81.12;97604.62;1728998;83;21135;-84
2020/12/20 09:41:27;;;;;;;13.88;9.48;;;;;;;3.12;81.61;97602.89;1728832;82;21142;-84
2020/12/20 09:43:56;;;;;;;16.12;9.68;;;;;;;3.35;82.08;97606.33;1699738;84;21138;-84
2020/12/20 09:46:27;;;;;;;17.37;10.10;;;;;;;3.60;82.27;97603.80;1699738;84;21292;-84
2020/12/20 09:48:57;;;;;;;16.82;10.35;;;;;;;3.82;81.94;97610.87;1699736;84;21281;-84
2020/12/20 09:51:26;;;;;;;12.40;7.62;;;;;;;3.93;81.60;97610.17;1699794;83;21309;-84
2020/12/20 09:53:54;;;;;;;18.98;10.82;;;;;;;4.13;81.46;97612.19;1699699;84;21158;-84
2020/12/20 09:56:22;;;;;;;23.05;12.80;;;;;;;4.14;80.05;97598.55;1699838;84;21119;-84
2020/12/20 09:58:49;;;;;;;22.52;13.88;;;;;;;4.14;80.45;97607.23;1699739;84;21154;-84
2020/12/20 10:01:20;;;;;;;23.50;15.45;;;;;;;4.27;80.18;97603.71;1699884;83;21174;-84
2020/12/20 10:03:47;;;;;;;28.75;16.12;;;;;;;4.33;80.60;97598.91;1699757;84;21253;-84
2020/12/20 10:06:16;;;;;;;25.37;17.07;;;;;;;4.46;80.54;97600.11;1699689;84;21159;-83
2020/12/20 10:08:43;;;;;;;23.38;15.10;;;;;;;4.59;80.42;97599.20;1699969;84;21284;-84
2020/12/20 10:11:18;;;;;;;21.85;14.07;;;;;;;4.73;80.47;97599.38;1699750;83;21158;-84
2020/12/20 10:13:46;;;;;;;22.00;14.68;;;;;;;4.90;80.64;97589.62;1728194;83;21293;-84
2020/12/20 10:16:24;;;;;;;18.70;11.93;;;;;;;5.10;80.36;97592.86;1728873;83;21241;-84
2020/12/20 10:18:51;;;;;;;20.52;12.85;;;;;;;5.22;80.16;97589.00;1728880;83;21503;-84
2020/12/20 10:21:18;;;;;;;19.62;12.85;;;;;;;5.29;78.94;97580.51;1728809;82;21115;-84
2020/12/20 10:23:45;;;;;;;16.20;9.75;;;;;;;5.20;78.21;97584.44;1728712;83;21257;-84
2020/12/20 10:26:13;;;;;;;20.88;11.88;;;;;;;5.26;78.08;97581.75;1728681;83;21292;-84
2020/12/20 10:28:40;;;;;;;18.75;10.75;;;;;;;5.22;77.86;97579.28;1728768;83;21171;-84
2020/12/20 10:31:07;;;;;;;21.68;12.60;;;;;;;5.26;77.17;97573.87;1728870;82;21159;-84
2020/12/20 10:33:34;;;;;;;17.10;11.97;;;;;;;5.22;77.02;97579.28;1728745;83;21159;-84
2020/12/20 10:36:01;;;;;;;19.90;11.33;;;;;;;5.30;77.89;97574.22;1728943;83;21138;-84
2020/12/20 10:38:28;;;;;;;15.93;8.98;;;;;;;5.43;77.64;97571.44;1728686;83;21155;-84
2020/12/20 10:40:55;;;;;;;17.70;11.90;;;;;;;5.56;76.99;97556.00;1728855;82;21158;-84
2020/12/20 10:43:23;;;;;;;17.90;10.10;;;;;;;5.48;76.56;97562.87;1728719;83;21146;-84
2020/12/20 10:45:50;;;;;;;17.50;9.80;;;;;;;5.57;76.68;97554.46;1728695;83;21653;-84
2020/12/20 10:48:17;;;;;;;21.50;12.80;;;;;;;5.58;76.29;97557.89;1728671;83;21294;-84
2020/12/20 10:50:44;;;;;;;15.35;9.78;;;;;;;5.65;76.63;97553.36;1728704;82;21273;-84
2020/12/20 10:53:11;;;;;;;22.10;12.60;;;;;;;5.78;77.14;97551.86;1728792;83;21190;-84
2020/12/20 10:55:40;;;;;;;22.27;14.03;;;;;;;5.89;76.62;97556.85;1728664;83;21151;-84
2020/12/20 10:58:07;;;;;;;19.23;12.28;;;;;;;5.94;76.92;97553.88;1728747;83;21158;-84
2020/12/20 11:00:34;;;;;;;18.62;12.47;;;;;;;6.08;77.18;97555.00;1731915;81;21130;-84
2020/12/20 11:03:01;;;;;;;26.07;15.40;;;;;;;6.22;76.87;97552.45;1734209;82;21495;-84
2020/12/20 11:05:29;;;;;;;29.82;18.48;;;;;;;6.14;75.05;97550.14;1734130;83;21151;-84
2020/12/20 11:07:56;;;;;;;25.10;15.45;;;;;;;5.98;74.84;97552.91;1734126;83;21150;-84
2020/12/20 11:10:25;;;;;;;25.35;15.78;;;;;;;5.92;74.89;97551.20;1734259;81;21265;-85
2020/12/20 11:12:52;;;;;;;23.25;14.25;;;;;;;5.89;74.73;97558.97;1733985;83;21162;-84
2020/12/20 11:15:19;;;;;;;26.55;14.78;;;;;;;5.85;74.59;97555.70;1734129;82;21421;-84
2020/12/20 11:17:47;;;;;;;36.35;20.82;;;;;;;5.91;75.14;97553.51;1734222;83;21636;-84
2020/12/20 11:20:14;;;;;;;25.00;15.88;;;;;;;6.04;75.58;97555.14;1734180;81;21261;-85
2020/12/20 11:22:42;;;;;;;22.17;15.65;;;;;;;6.08;74.00;97555.80;1734151;82;21535;-84
2020/12/20 11:25:09;;;;;;;31.12;19.62;;;;;;;5.98;74.01;97557.38;1734113;83;21502;-85
2020/12/20 11:27:37;;;;;;;25.37;17.50;;;;;;;5.97;74.49;97548.68;1734062;83;21542;-85
2020/12/20 11:30:05;;;;;;;26.00;16.05;;;;;;;6.01;74.31;97548.50;1734193;81;21184;-84
2020/12/20 11:32:34;;;;;;;27.30;17.73;;;;;;;6.10;74.61;97553.74;1734206;82;21267;-84
2020/12/20 11:35:02;;;;;;;25.75;17.73;;;;;;;6.14;74.56;97554.09;1734503;83;21146;-85